createdAt,value
2023-04-25T00:01:55.637Z,9.47
2023-04-25T00:04:22.904Z,9.46
2023-04-25T00:06:49.674Z,9.44
2023-04-25T00:09:16.374Z,9.43
2023-04-25T00:11:42.872Z,9.40
2023-04-25T00:14:09.306Z,9.40
2023-04-25T00:16:36.530Z,9.36
2023-04-25T00:19:03.818Z,9.36
2023-04-25T00:21:32.495Z,9.33
2023-04-25T00:23:58.962Z,9.29
2023-04-25T00:26:25.989Z,9.26
2023-04-25T00:28:52.677Z,9.22
2023-04-25T00:31:19.133Z,9.17
2023-04-25T00:33:45.570Z,9.12
2023-04-25T00:36:12.333Z,9.10
2023-04-25T00:38:39.254Z,9.03
2023-04-25T00:41:08.415Z,8.97
2023-04-25T00:43:35.127Z,8.91
2023-04-25T00:46:02.038Z,8.86
2023-04-25T00:48:28.710Z,8.80
2023-04-25T00:50:59.366Z,8.74
2023-04-25T00:53:27.944Z,8.67
2023-04-25T00:55:55.116Z,8.61
2023-04-25T00:58:22.697Z,8.56
2023-04-25T01:00:51.169Z,8.48
2023-04-25T01:03:20.735Z,8.46
2023-04-25T01:05:48.209Z,8.41
2023-04-25T01:08:15.431Z,8.39
2023-04-25T01:10:41.953Z,8.34
2023-04-25T01:13:08.746Z,8.28
2023-04-25T01:15:36.736Z,8.24
2023-04-25T01:18:04.752Z,8.18
2023-04-25T01:20:33.360Z,8.14
2023-04-25T01:22:59.855Z,8.10
2023-04-25T01:25:26.856Z,8.05
2023-04-25T01:27:53.592Z,8.01
2023-04-25T01:30:20.282Z,7.96
2023-04-25T01:32:48.333Z,7.93
2023-04-25T01:35:14.849Z,7.88
2023-04-25T01:37:42.674Z,7.85
2023-04-25T01:40:13.763Z,7.77
2023-04-25T01:42:43.245Z,7.72
2023-04-25T01:45:11.785Z,7.66
2023-04-25T01:47:40.524Z,7.58
2023-04-25T01:50:08.770Z,7.54
2023-04-25T01:52:35.413Z,7.47
2023-04-25T01:55:05.534Z,7.39
2023-04-25T01:57:32.063Z,7.34
2023-04-25T02:00:01.956Z,7.28
2023-04-25T02:02:28.500Z,7.25
2023-04-25T02:04:55.592Z,7.20
2023-04-25T02:07:22.134Z,7.15
2023-04-25T02:09:48.861Z,7.11
2023-04-25T02:12:15.384Z,7.08
2023-04-25T02:14:41.812Z,7.05
2023-04-25T02:17:08.409Z,7.01
2023-04-25T02:19:34.994Z,6.99
2023-04-25T02:22:01.679Z,6.96
2023-04-25T02:24:28.961Z,6.94
2023-04-25T02:26:56.888Z,6.92
2023-04-25T02:29:24.141Z,6.88
2023-04-25T02:31:50.862Z,6.85
2023-04-25T02:34:17.422Z,6.81
2023-04-25T02:36:43.970Z,6.81
2023-04-25T02:39:11.313Z,6.77
2023-04-25T02:41:37.892Z,6.76
2023-04-25T02:44:04.360Z,6.74
2023-04-25T02:46:38.889Z,6.71
2023-04-25T02:49:07.263Z,6.67
2023-04-25T02:51:33.767Z,6.64
2023-04-25T02:54:00.315Z,6.64
2023-04-25T02:56:27.265Z,6.61
2023-04-25T02:58:54.683Z,6.57
2023-04-25T03:01:21.324Z,6.53
2023-04-25T03:03:47.964Z,6.50
2023-04-25T03:06:14.963Z,6.47
2023-04-25T03:08:41.370Z,6.47
2023-04-25T03:11:07.866Z,6.47
2023-04-25T03:13:34.288Z,6.45
2023-04-25T03:16:01.061Z,6.45
2023-04-25T03:18:27.561Z,6.44
2023-04-25T03:20:54.112Z,6.44
2023-04-25T03:23:20.541Z,6.41
2023-04-25T03:25:46.948Z,6.41
2023-04-25T03:28:13.495Z,6.40
2023-04-25T03:30:39.891Z,6.40
2023-04-25T03:33:06.412Z,6.39
2023-04-25T03:35:32.915Z,6.38
2023-04-25T03:37:59.349Z,6.37
2023-04-25T03:40:25.915Z,6.36
2023-04-25T03:42:52.346Z,6.35
2023-04-25T03:45:18.852Z,6.39
2023-04-25T03:47:45.444Z,6.39
2023-04-25T03:50:12.016Z,6.41
2023-04-25T03:52:38.541Z,6.42
2023-04-25T03:55:05.813Z,6.44
2023-04-25T03:57:32.315Z,6.47
2023-04-25T03:59:58.679Z,6.51
2023-04-25T04:02:25.333Z,6.53
2023-04-25T04:04:52.061Z,6.53
2023-04-25T04:07:18.810Z,6.57
2023-04-25T04:09:45.281Z,6.59
2023-04-25T04:12:11.671Z,6.59
2023-04-25T04:14:38.071Z,6.60
2023-04-25T04:17:04.534Z,6.61
2023-04-25T04:19:30.917Z,6.62
2023-04-25T04:21:57.293Z,6.63
2023-04-25T04:24:23.766Z,6.64
2023-04-25T04:26:51.624Z,6.66
2023-04-25T04:29:21.807Z,6.67
2023-04-25T04:31:50.722Z,6.67
2023-04-25T04:34:18.860Z,6.66
2023-04-25T04:36:47.210Z,6.67
2023-04-25T04:39:14.659Z,6.66
2023-04-25T04:41:41.479Z,6.68
2023-04-25T04:44:09.851Z,6.71
2023-04-25T04:46:38.838Z,6.73
2023-04-25T04:49:18.320Z,6.75
2023-04-25T04:51:47.897Z,6.79
2023-04-25T04:54:14.371Z,6.83
2023-04-25T04:56:41.228Z,6.87
2023-04-25T04:59:08.068Z,6.93
2023-04-25T05:01:36.882Z,7.01
2023-04-25T05:04:04.450Z,7.07
2023-04-25T05:06:32.187Z,7.14
2023-04-25T05:08:58.948Z,7.19
2023-04-25T05:11:29.118Z,7.24
2023-04-25T05:13:55.795Z,7.31
2023-04-25T05:16:22.199Z,7.38
2023-04-25T05:18:48.963Z,7.44
2023-04-25T05:21:15.396Z,7.46
2023-04-25T05:23:41.803Z,7.50
2023-04-25T05:26:14.500Z,7.53
2023-04-25T05:28:42.535Z,7.59
2023-04-25T05:31:11.321Z,7.62
2023-04-25T05:33:37.833Z,7.69
2023-04-25T05:36:04.500Z,7.75
2023-04-25T05:38:33.265Z,7.79
2023-04-25T05:41:01.202Z,7.82
2023-04-25T05:43:27.595Z,7.88
2023-04-25T05:45:54.164Z,7.96
2023-04-25T05:48:20.831Z,7.97
2023-04-25T05:50:47.259Z,8.05
2023-04-25T05:53:13.746Z,8.11
2023-04-25T05:55:40.184Z,8.15
2023-04-25T05:58:09.942Z,8.19
2023-04-25T06:00:36.552Z,8.22
2023-04-25T06:03:03.444Z,8.30
2023-04-25T06:05:30.264Z,8.39
2023-04-25T06:07:56.855Z,8.42
2023-04-25T06:10:23.612Z,8.48
2023-04-25T06:12:50.084Z,8.50
2023-04-25T06:15:27.302Z,8.52
2023-04-25T06:17:56.431Z,8.56
2023-04-25T06:20:24.977Z,8.54
2023-04-25T06:22:55.132Z,8.56
2023-04-25T06:25:21.985Z,8.58
2023-04-25T06:27:48.620Z,8.61
2023-04-25T06:30:15.093Z,8.63
2023-04-25T06:32:41.697Z,8.64
2023-04-25T06:35:08.521Z,8.71
2023-04-25T06:37:34.953Z,8.72
2023-04-25T06:40:01.333Z,8.71
2023-04-25T06:42:27.727Z,8.70
2023-04-25T06:44:54.090Z,8.70
2023-04-25T06:47:20.558Z,8.66
2023-04-25T06:49:46.981Z,8.63
2023-04-25T06:52:13.457Z,8.69
2023-04-25T06:54:39.888Z,8.73
2023-04-25T06:57:06.403Z,8.80
2023-04-25T06:59:33.816Z,8.91
2023-04-25T07:02:00.580Z,9.00
2023-04-25T07:04:27.344Z,9.08
2023-04-25T07:06:54.333Z,9.11
2023-04-25T07:09:20.810Z,9.14
2023-04-25T07:11:47.296Z,9.14
2023-04-25T07:14:13.772Z,9.17
2023-04-25T07:16:40.741Z,9.18
2023-04-25T07:19:07.256Z,9.19
2023-04-25T07:21:33.881Z,9.26
2023-04-25T07:24:00.438Z,9.32
2023-04-25T07:26:26.839Z,9.27
2023-04-25T07:28:53.347Z,9.21
2023-04-25T07:31:19.731Z,9.11
2023-04-25T07:33:46.929Z,9.14
2023-04-25T07:36:13.669Z,9.11
2023-04-25T07:38:40.541Z,9.10
2023-04-25T07:41:07.103Z,9.13
2023-04-25T07:43:33.758Z,9.15
2023-04-25T07:46:00.229Z,9.27
2023-04-25T07:48:26.699Z,9.31
2023-04-25T07:50:53.272Z,9.37
2023-04-25T07:53:19.853Z,9.48
2023-04-25T07:55:46.322Z,9.54
2023-04-25T07:58:13.030Z,9.66
2023-04-25T08:00:39.620Z,9.82
2023-04-25T08:03:06.217Z,9.94
2023-04-25T08:05:32.825Z,9.99
2023-04-25T08:08:00.204Z,9.99
2023-04-25T08:10:26.647Z,10.06
2023-04-25T08:12:53.100Z,10.06
2023-04-25T08:15:19.569Z,10.08
2023-04-25T08:17:46.487Z,10.08
2023-04-25T08:20:13.306Z,10.14
2023-04-25T08:22:39.781Z,10.15
2023-04-25T08:25:06.402Z,10.25
2023-04-25T08:27:32.816Z,10.25
2023-04-25T08:29:59.732Z,10.30
2023-04-25T08:32:26.403Z,10.36
2023-04-25T08:34:55.077Z,10.37
2023-04-25T08:37:21.824Z,10.37
2023-04-25T08:39:53.405Z,10.39
2023-04-25T08:42:20.673Z,10.40
2023-04-25T08:44:49.472Z,10.34
2023-04-25T08:47:15.956Z,10.27
2023-04-25T08:49:47.102Z,10.20
2023-04-25T08:52:14.978Z,10.22
2023-04-25T08:54:49.267Z,10.25
2023-04-25T08:57:16.453Z,10.33
2023-04-25T08:59:46.661Z,10.39
2023-04-25T09:02:18.848Z,10.44
2023-04-25T09:04:45.729Z,10.55
2023-04-25T09:07:12.325Z,10.55
2023-04-25T09:09:38.788Z,10.56
2023-04-25T09:12:06.303Z,10.61
2023-04-25T09:14:32.990Z,10.62
2023-04-25T09:17:01.129Z,10.53
2023-04-25T09:19:40.448Z,10.53
2023-04-25T09:22:08.534Z,10.49
2023-04-25T09:24:41.552Z,10.50
2023-04-25T09:27:10.571Z,10.52
2023-04-25T09:29:39.251Z,10.41
2023-04-25T09:32:12.826Z,10.40
2023-04-25T09:34:52.682Z,10.34
2023-04-25T09:37:21.479Z,10.25
2023-04-25T09:39:54.926Z,10.28
2023-04-25T09:42:26.407Z,10.30
2023-04-25T09:44:54.903Z,10.37
2023-04-25T09:47:24.225Z,10.45
2023-04-25T09:49:51.984Z,10.48
2023-04-25T09:52:26.431Z,10.58
2023-04-25T09:54:53.451Z,10.61
2023-04-25T09:57:22.430Z,10.71
2023-04-25T09:59:51.327Z,10.92
2023-04-25T10:02:21.342Z,11.21
2023-04-25T10:04:55.522Z,11.44
2023-04-25T10:07:27.264Z,11.55
2023-04-25T10:10:02.794Z,11.58
2023-04-25T10:12:29.847Z,11.59
2023-04-25T10:14:56.331Z,11.51
2023-04-25T10:17:23.540Z,11.47
2023-04-25T10:19:50.453Z,11.43
2023-04-25T10:22:27.857Z,11.34
2023-04-25T10:24:54.500Z,11.27
2023-04-25T10:27:21.141Z,11.24
2023-04-25T10:30:16.648Z,11.23
2023-04-25T10:32:44.328Z,11.22
2023-04-25T10:35:34.923Z,11.30
2023-04-25T10:38:04.300Z,11.34
2023-04-25T10:40:31.374Z,11.33
2023-04-25T10:43:32.826Z,11.32
2023-04-25T10:46:02.967Z,11.24
2023-04-25T10:48:31.310Z,11.22
2023-04-25T10:51:17.646Z,11.09
2023-04-25T10:53:56.442Z,11.04
2023-04-25T10:56:45.097Z,10.89
2023-04-25T10:59:17.142Z,10.93
2023-04-25T11:01:45.645Z,10.92
2023-04-25T11:04:33.233Z,10.82
2023-04-25T11:07:07.809Z,10.74
2023-04-25T11:09:36.199Z,10.70
2023-04-25T11:12:02.939Z,10.70
2023-04-25T11:14:29.438Z,10.72
2023-04-25T11:17:00.689Z,10.75
2023-04-25T11:19:28.782Z,10.83
2023-04-25T11:22:02.885Z,10.91
2023-04-25T11:24:31.908Z,11.03
2023-04-25T11:27:05.343Z,11.18
2023-04-25T11:29:35.677Z,11.48
2023-04-25T11:32:03.311Z,11.81
2023-04-25T11:34:31.857Z,11.97
2023-04-25T11:36:58.762Z,12.25
2023-04-25T11:39:26.761Z,12.44
2023-04-25T11:41:53.989Z,12.40
2023-04-25T11:44:21.171Z,12.40
2023-04-25T11:46:48.207Z,12.26
2023-04-25T11:49:15.847Z,12.12
2023-04-25T11:51:44.256Z,11.98
2023-04-25T11:54:12.761Z,11.90
2023-04-25T11:56:43.213Z,11.73
2023-04-25T11:59:10.715Z,11.65
2023-04-25T12:01:39.572Z,11.59
2023-04-25T12:04:25.876Z,11.60
2023-04-25T12:06:54.494Z,12.13
2023-04-25T12:09:28.227Z,12.54
2023-04-25T12:11:56.599Z,12.69
2023-04-25T12:14:30.919Z,12.70
2023-04-25T12:16:59.426Z,12.44
2023-04-25T12:19:26.926Z,12.26
2023-04-25T12:21:58.611Z,12.17
2023-04-25T12:24:28.407Z,11.96
2023-04-25T12:27:05.152Z,11.73
2023-04-25T12:29:42.133Z,11.56
2023-04-25T12:32:14.763Z,11.45
2023-04-25T12:34:41.204Z,11.37
2023-04-25T12:37:07.632Z,11.34
2023-04-25T12:39:34.107Z,11.29
2023-04-25T12:42:00.729Z,11.20
2023-04-25T12:44:27.693Z,11.15
2023-04-25T12:46:55.520Z,11.12
2023-04-25T12:49:22.056Z,11.13
2023-04-25T12:51:48.489Z,11.10
2023-04-25T12:54:15.473Z,11.20
2023-04-25T12:56:42.273Z,11.29
2023-04-25T12:59:08.818Z,11.50
2023-04-25T13:01:36.511Z,11.67
2023-04-25T13:04:03.584Z,11.92
2023-04-25T13:06:33.255Z,12.05
2023-04-25T13:08:59.746Z,12.15
2023-04-25T13:11:26.234Z,12.25
2023-04-25T13:13:53.245Z,12.25
2023-04-25T13:16:21.958Z,12.13
2023-04-25T13:18:48.813Z,12.10
2023-04-25T13:21:15.310Z,12.08
2023-04-25T13:23:43.753Z,12.07
2023-04-25T13:26:10.201Z,12.08
2023-04-25T13:28:36.621Z,12.10
2023-04-25T13:31:03.095Z,12.16
2023-04-25T13:33:29.965Z,12.22
2023-04-25T13:35:58.020Z,12.26
2023-04-25T13:38:26.340Z,12.25
2023-04-25T13:40:53.710Z,12.27
2023-04-25T13:43:22.698Z,12.33
2023-04-25T13:45:52.453Z,12.35
2023-04-25T13:48:19.881Z,12.34
2023-04-25T13:50:46.605Z,12.30
2023-04-25T13:53:13.309Z,12.37
2023-04-25T13:55:39.819Z,12.35
2023-04-25T13:58:10.772Z,12.35
2023-04-25T14:00:39.966Z,12.33
2023-04-25T14:03:08.788Z,12.38
2023-04-25T14:05:40.017Z,12.44
2023-04-25T14:08:08.032Z,12.50
2023-04-25T14:10:35.101Z,12.49
2023-04-25T14:13:02.170Z,12.48
2023-04-25T14:15:28.782Z,12.50
2023-04-25T14:17:55.364Z,12.44
2023-04-25T14:20:22.372Z,12.43
2023-04-25T14:22:48.810Z,12.39
2023-04-25T14:25:15.327Z,12.34
2023-04-25T14:27:41.882Z,12.26
2023-04-25T14:30:10.196Z,12.15
2023-04-25T14:32:36.758Z,12.06
2023-04-25T14:35:03.359Z,11.98
2023-04-25T14:37:29.856Z,11.88
2023-04-25T14:39:56.282Z,11.83
2023-04-25T14:42:22.675Z,11.79
2023-04-25T14:44:49.126Z,11.70
2023-04-25T14:47:16.630Z,11.64
2023-04-25T14:49:43.156Z,11.58
2023-04-25T14:52:09.613Z,11.58
2023-04-25T14:54:36.307Z,11.52
2023-04-25T14:57:03.320Z,11.57
2023-04-25T14:59:29.827Z,11.61
2023-04-25T15:01:59.482Z,11.63
2023-04-25T15:04:26.805Z,11.66
2023-04-25T15:06:53.324Z,11.68
2023-04-25T15:09:20.341Z,11.74
2023-04-25T15:11:46.842Z,11.71
2023-04-25T15:14:13.282Z,11.79
2023-04-25T15:16:39.756Z,11.84
2023-04-25T15:19:06.436Z,11.96
2023-04-25T15:21:33.075Z,12.54
2023-04-25T15:23:59.510Z,13.01
2023-04-25T15:26:26.017Z,13.60
2023-04-25T15:28:53.476Z,14.27
2023-04-25T15:31:20.375Z,14.77
2023-04-25T15:33:49.957Z,15.22
2023-04-25T15:36:18.410Z,15.56
2023-04-25T15:38:44.925Z,15.92
2023-04-25T15:41:11.477Z,16.16
2023-04-25T15:43:38.766Z,16.29
2023-04-25T15:46:06.547Z,15.93
2023-04-25T15:48:33.455Z,15.80
2023-04-25T15:51:00.993Z,15.39
2023-04-25T15:53:27.524Z,15.14
2023-04-25T15:55:54.049Z,14.84
2023-04-25T15:58:20.557Z,14.57
2023-04-25T16:00:49.067Z,14.27
2023-04-25T16:03:15.692Z,14.07
2023-04-25T16:05:42.593Z,13.81
2023-04-25T16:08:09.146Z,13.57
2023-04-25T16:10:36.592Z,13.39
2023-04-25T16:13:03.748Z,13.22
2023-04-25T16:15:32.162Z,13.12
2023-04-25T16:17:59.408Z,13.33
2023-04-25T16:20:25.916Z,13.70
2023-04-25T16:22:52.275Z,14.08
2023-04-25T16:25:18.769Z,14.09
2023-04-25T16:27:45.424Z,13.96
2023-04-25T16:30:12.070Z,13.85
2023-04-25T16:32:39.874Z,13.61
2023-04-25T16:35:07.163Z,13.36
2023-04-25T16:37:33.605Z,13.08
2023-04-25T16:40:00.045Z,12.87
2023-04-25T16:42:26.769Z,12.74
2023-04-25T16:44:53.195Z,12.60
2023-04-25T16:47:20.705Z,12.48
2023-04-25T16:49:47.257Z,12.35
2023-04-25T16:52:14.274Z,12.33
2023-04-25T16:54:41.038Z,12.30
2023-04-25T16:57:10.424Z,12.34
2023-04-25T16:59:38.163Z,12.39
2023-04-25T17:02:05.046Z,12.42
2023-04-25T17:04:31.716Z,12.53
2023-04-25T17:06:58.510Z,12.55
2023-04-25T17:09:25.041Z,12.55
2023-04-25T17:11:51.604Z,12.64
2023-04-25T17:14:18.063Z,12.63
2023-04-25T17:16:44.588Z,12.77
2023-04-25T17:19:11.067Z,12.96
2023-04-25T17:21:37.585Z,13.05
2023-04-25T17:24:06.483Z,13.07
2023-04-25T17:26:33.010Z,13.05
2023-04-25T17:28:59.473Z,12.96
2023-04-25T17:31:26.112Z,12.87
2023-04-25T17:33:52.561Z,12.75
2023-04-25T17:36:19.074Z,12.63
2023-04-25T17:38:45.617Z,12.62
2023-04-25T17:41:13.230Z,12.63
2023-04-25T17:43:39.809Z,12.67
2023-04-25T17:46:06.686Z,12.79
2023-04-25T17:48:33.090Z,12.78
2023-04-25T17:50:59.723Z,12.85
2023-04-25T17:53:26.395Z,12.63
2023-04-25T17:55:52.930Z,12.57
2023-04-25T17:58:19.337Z,12.43
2023-04-25T18:00:46.396Z,12.31
2023-04-25T18:03:12.835Z,12.23
2023-04-25T18:05:39.365Z,12.12
2023-04-25T18:08:06.791Z,12.06
2023-04-25T18:10:34.377Z,11.97
2023-04-25T18:13:00.912Z,11.87
2023-04-25T18:15:28.626Z,11.78
2023-04-25T18:17:55.100Z,11.70
2023-04-25T18:20:22.210Z,11.63
2023-04-25T18:22:48.622Z,11.57
2023-04-25T18:25:15.497Z,11.55
2023-04-25T18:27:42.366Z,11.50
2023-04-25T18:30:10.816Z,11.43
2023-04-25T18:32:38.024Z,11.41
2023-04-25T18:35:06.099Z,11.36
2023-04-25T18:37:32.569Z,11.34
2023-04-25T18:39:59.272Z,11.31
2023-04-25T18:42:25.818Z,11.27
2023-04-25T18:44:52.460Z,11.21
2023-04-25T18:47:18.892Z,11.14
2023-04-25T18:49:45.591Z,11.02
2023-04-25T18:52:14.996Z,10.93
2023-04-25T18:54:41.482Z,10.85
2023-04-25T18:57:08.023Z,10.79
2023-04-25T18:59:34.436Z,10.76
2023-04-25T19:02:01.981Z,10.72
2023-04-25T19:04:29.700Z,10.71
2023-04-25T19:06:56.239Z,10.69
2023-04-25T19:09:23.261Z,10.68
2023-04-25T19:11:49.815Z,10.66
2023-04-25T19:14:16.240Z,10.64
2023-04-25T19:16:42.840Z,10.59
2023-04-25T19:19:09.389Z,10.54
2023-04-25T19:21:36.285Z,10.46
2023-04-25T19:24:06.951Z,10.40
2023-04-25T19:26:33.460Z,10.31
2023-04-25T19:29:05.874Z,10.23
2023-04-25T19:31:33.865Z,10.14
2023-04-25T19:34:00.309Z,10.06
2023-04-25T19:36:27.736Z,9.99
2023-04-25T19:38:54.287Z,9.94
2023-04-25T19:41:21.379Z,9.90
2023-04-25T19:43:48.072Z,9.86
2023-04-25T19:46:14.534Z,9.83
2023-04-25T19:48:41.445Z,9.81
2023-04-25T19:51:09.094Z,9.75
2023-04-25T19:53:35.663Z,9.73
2023-04-25T19:56:02.860Z,9.71
2023-04-25T19:58:29.764Z,9.67
2023-04-25T20:00:57.601Z,9.61
2023-04-25T20:03:24.351Z,9.57
2023-04-25T20:05:50.936Z,9.49
2023-04-25T20:08:17.340Z,9.44
2023-04-25T20:10:43.782Z,9.38
2023-04-25T20:13:10.726Z,9.31
2023-04-25T20:15:37.876Z,9.24
2023-04-25T20:18:04.614Z,9.15
2023-04-25T20:20:31.080Z,9.09
2023-04-25T20:22:57.597Z,9.01
2023-04-25T20:25:24.146Z,8.93
2023-04-25T20:27:50.532Z,8.85
2023-04-25T20:30:17.063Z,8.78
2023-04-25T20:32:43.489Z,8.71
2023-04-25T20:35:10.183Z,8.61
2023-04-25T20:37:37.455Z,8.50
2023-04-25T20:40:06.483Z,8.42
2023-04-25T20:42:33.043Z,8.34
2023-04-25T20:44:59.521Z,8.19
2023-04-25T20:47:26.093Z,8.14
2023-04-25T20:49:52.946Z,8.06
2023-04-25T20:52:19.416Z,7.99
2023-04-25T20:54:50.542Z,7.93
2023-04-25T20:57:17.503Z,7.86
2023-04-25T20:59:43.928Z,7.80
2023-04-25T21:02:12.681Z,7.75
2023-04-25T21:04:39.374Z,7.66
2023-04-25T21:07:05.905Z,7.60
2023-04-25T21:09:32.345Z,7.53
2023-04-25T21:11:58.775Z,7.47
2023-04-25T21:14:25.541Z,7.42
2023-04-25T21:16:52.106Z,7.38
2023-04-25T21:19:18.616Z,7.32
2023-04-25T21:21:46.116Z,7.28
2023-04-25T21:24:14.370Z,7.24
2023-04-25T21:26:40.874Z,7.20
2023-04-25T21:29:07.370Z,7.19
2023-04-25T21:31:33.931Z,7.16
2023-04-25T21:34:00.680Z,7.11
2023-04-25T21:36:27.768Z,7.10
2023-04-25T21:38:54.492Z,7.05
2023-04-25T21:41:21.223Z,7.03
2023-04-25T21:43:47.638Z,6.99
2023-04-25T21:48:43.417Z,6.90
2023-04-25T21:51:09.930Z,6.87
2023-04-25T21:53:36.679Z,6.82
2023-04-25T21:56:03.251Z,6.78
2023-04-25T21:58:29.674Z,6.79
2023-04-25T22:00:56.211Z,6.78
2023-04-25T22:03:22.763Z,6.78
2023-04-25T22:05:49.263Z,6.79
2023-04-25T22:08:15.837Z,6.80
2023-04-25T22:10:42.643Z,6.78
2023-04-25T22:13:10.016Z,6.78
2023-04-25T22:15:36.424Z,6.79
2023-04-25T22:18:05.514Z,6.80
2023-04-25T22:20:32.072Z,6.80
2023-04-25T22:22:58.628Z,6.81
2023-04-25T22:25:25.199Z,6.82
2023-04-25T22:27:51.650Z,6.82
2023-04-25T22:30:18.439Z,6.82
2023-04-25T22:32:44.947Z,6.81
2023-04-25T22:35:12.073Z,6.80
2023-04-25T22:37:41.380Z,6.80
2023-04-25T22:40:09.148Z,6.78
2023-04-25T22:42:40.232Z,6.77
2023-04-25T22:45:08.141Z,6.76
2023-04-25T22:47:36.330Z,6.76
2023-04-25T22:50:06.405Z,6.75
2023-04-25T22:52:35.490Z,6.76
2023-04-25T22:55:03.117Z,6.77
2023-04-25T22:57:30.192Z,6.76
2023-04-25T22:59:57.543Z,6.76
2023-04-25T23:02:25.071Z,6.77
2023-04-25T23:04:53.240Z,6.79
2023-04-25T23:07:20.454Z,6.79
2023-04-25T23:09:46.946Z,6.80
2023-04-25T23:12:13.458Z,6.80
2023-04-25T23:14:40.019Z,6.81
2023-04-25T23:17:06.685Z,6.80
2023-04-25T23:19:34.352Z,6.82
2023-04-25T23:22:00.878Z,6.81
2023-04-25T23:24:27.275Z,6.81
2023-04-25T23:26:53.666Z,6.80
2023-04-25T23:29:20.104Z,6.79
2023-04-25T23:31:46.490Z,6.79
2023-04-25T23:34:12.861Z,6.74
2023-04-25T23:36:39.360Z,6.75
2023-04-25T23:39:05.861Z,6.73
2023-04-25T23:41:32.675Z,6.69
2023-04-25T23:43:59.244Z,6.69
2023-04-25T23:46:28.285Z,6.69
2023-04-25T23:48:54.720Z,6.67
2023-04-25T23:51:21.378Z,6.66
2023-04-25T23:53:47.748Z,6.64
2023-04-25T23:56:14.178Z,6.62
2023-04-25T23:58:40.768Z,6.61
